createdAt,value
2018-11-06T00:01:06.660Z,6.92
2018-11-06T00:03:41.011Z,9.00
2018-11-06T00:06:09.619Z,6.00
2018-11-06T00:08:38.154Z,3.92
2018-11-06T00:11:08.745Z,3.55
2018-11-06T00:13:37.847Z,3.42
2018-11-06T00:16:07.888Z,5.50
2018-11-06T00:18:36.435Z,10.20
2018-11-06T00:21:05.263Z,8.13
2018-11-06T00:23:33.808Z,10.25
2018-11-06T00:26:02.362Z,12.68
2018-11-06T00:28:31.151Z,9.70
2018-11-06T00:31:00.041Z,26.05
2018-11-06T00:33:28.911Z,11.50
2018-11-06T00:35:57.444Z,15.20
2018-11-06T00:38:25.971Z,7.45
2018-11-06T00:40:54.520Z,6.28
2018-11-06T00:43:23.061Z,10.18
2018-11-06T00:45:51.602Z,5.75
2018-11-06T00:48:20.134Z,3.83
2018-11-06T00:50:48.878Z,3.80
2018-11-06T00:53:17.475Z,4.20
2018-11-06T00:55:46.027Z,4.90
2018-11-06T00:58:15.023Z,3.95
2018-11-06T01:00:43.556Z,4.75
2018-11-06T01:03:12.546Z,3.65
2018-11-06T01:05:41.403Z,5.65
2018-11-06T01:08:09.947Z,6.92
2018-11-06T01:10:38.486Z,5.45
2018-11-06T01:13:07.019Z,5.03
2018-11-06T01:15:35.551Z,4.55
2018-11-06T01:18:04.106Z,5.62
2018-11-06T01:20:32.632Z,5.30
2018-11-06T01:23:01.340Z,4.42
2018-11-06T01:25:29.979Z,4.03
2018-11-06T01:27:58.513Z,15.55
2018-11-06T01:30:27.047Z,4.95
2018-11-06T01:32:55.579Z,4.03
2018-11-06T01:35:24.113Z,5.03
2018-11-06T01:37:52.638Z,7.87
2018-11-06T01:40:21.776Z,4.28
2018-11-06T01:42:50.311Z,3.95
2018-11-06T01:45:19.538Z,9.78
2018-11-06T01:47:48.336Z,7.35
2018-11-06T01:50:18.229Z,11.03
2018-11-06T01:52:48.079Z,17.52
2018-11-06T01:55:16.660Z,7.70
2018-11-06T01:57:45.677Z,14.73
2018-11-06T02:00:17.357Z,18.73
2018-11-06T02:02:45.933Z,17.98
2018-11-06T02:05:16.008Z,10.90
2018-11-06T02:07:45.899Z,8.00
2018-11-06T02:10:15.499Z,6.92
2018-11-06T02:12:45.415Z,4.97
2018-11-06T02:15:14.008Z,4.53
2018-11-06T02:17:43.897Z,7.78
2018-11-06T02:20:13.934Z,5.03
2018-11-06T02:22:44.186Z,4.40
2018-11-06T02:25:13.362Z,7.42
2018-11-06T02:27:41.934Z,5.28
2018-11-06T02:30:12.379Z,12.55
2018-11-06T02:32:41.519Z,23.30
2018-11-06T02:35:10.123Z,18.80
2018-11-06T02:37:39.187Z,13.95
2018-11-06T02:40:09.880Z,12.40
2018-11-06T02:42:38.545Z,9.13
2018-11-06T02:45:08.171Z,9.88
2018-11-06T02:47:36.731Z,11.60
2018-11-06T02:50:06.511Z,8.53
2018-11-06T02:52:35.048Z,9.88
2018-11-06T02:55:03.661Z,9.75
2018-11-06T02:57:32.593Z,7.33
2018-11-06T03:00:01.249Z,6.40
2018-11-06T03:02:29.998Z,5.33
2018-11-06T03:04:58.622Z,4.95
2018-11-06T03:07:27.191Z,4.72
2018-11-06T03:09:56.174Z,4.00
2018-11-06T03:12:24.723Z,8.60
2018-11-06T03:14:53.264Z,5.00
2018-11-06T03:17:21.803Z,6.70
2018-11-06T03:19:50.342Z,9.58
2018-11-06T03:22:18.924Z,3.75
2018-11-06T03:24:47.455Z,5.37
2018-11-06T03:27:16.124Z,7.58
2018-11-06T03:29:44.671Z,3.70
2018-11-06T03:32:13.304Z,4.87
2018-11-06T03:34:42.251Z,3.90
2018-11-06T03:37:10.779Z,5.65
2018-11-06T03:39:39.592Z,7.97
2018-11-06T03:42:08.354Z,4.20
2018-11-06T03:44:36.899Z,11.60
2018-11-06T03:47:05.748Z,5.08
2018-11-06T03:49:34.293Z,8.18
2018-11-06T03:53:32.004Z,7.92
2018-11-06T03:56:00.534Z,5.47
2018-11-06T03:58:29.174Z,8.38
2018-11-06T04:00:57.710Z,6.78
2018-11-06T04:03:26.302Z,7.62
2018-11-06T04:05:54.840Z,15.15
2018-11-06T04:08:24.015Z,8.20
2018-11-06T04:10:52.547Z,6.47
2018-11-06T04:13:21.083Z,5.37
2018-11-06T04:15:49.619Z,8.98
2018-11-06T04:18:18.166Z,8.90
2018-11-06T04:20:47.451Z,4.67
2018-11-06T04:23:15.978Z,7.00
2018-11-06T04:25:44.513Z,3.70
2018-11-06T04:28:13.059Z,5.62
2018-11-06T04:30:41.970Z,33.42
2018-11-06T04:33:10.499Z,70.08
2018-11-06T04:35:39.047Z,167.93
2018-11-06T04:38:08.282Z,24.32
2018-11-06T04:40:36.799Z,8.70
2018-11-06T04:43:06.539Z,14.00
2018-11-06T04:45:35.076Z,11.12
2018-11-06T04:48:03.627Z,8.85
2018-11-06T04:50:32.494Z,4.85
2018-11-06T04:53:01.101Z,5.58
2018-11-06T04:55:29.648Z,5.22
2018-11-06T04:57:58.590Z,5.30
2018-11-06T05:00:27.144Z,7.28
2018-11-06T05:02:56.292Z,7.87
2018-11-06T05:05:24.821Z,7.47
2018-11-06T05:07:53.370Z,5.08
2018-11-06T05:10:21.929Z,13.93
2018-11-06T05:12:50.909Z,24.65
2018-11-06T05:15:19.457Z,8.10
2018-11-06T05:17:47.986Z,8.23
2018-11-06T05:20:17.961Z,5.85
2018-11-06T05:22:47.406Z,6.62
2018-11-06T05:25:16.188Z,7.65
2018-11-06T05:27:44.718Z,5.80
2018-11-06T05:30:13.596Z,6.08
2018-11-06T05:32:43.905Z,6.72
2018-11-06T05:35:12.711Z,3.98
2018-11-06T05:37:41.701Z,7.37
2018-11-06T05:40:22.656Z,4.62
2018-11-06T05:42:51.207Z,5.08
2018-11-06T05:45:20.384Z,7.20
2018-11-06T05:47:48.930Z,6.53
2018-11-06T05:50:17.483Z,7.83
2018-11-06T05:52:46.065Z,6.08
2018-11-06T05:55:14.607Z,7.15
2018-11-06T05:57:43.211Z,8.35
2018-11-06T06:00:11.943Z,8.75
2018-11-06T06:02:40.497Z,10.20
2018-11-06T06:05:09.463Z,44.98
2018-11-06T06:07:38.020Z,21.10
2018-11-06T06:10:07.451Z,15.18
2018-11-06T06:12:36.753Z,20.50
2018-11-06T06:15:06.447Z,21.37
2018-11-06T06:17:35.171Z,15.13
2018-11-06T06:20:04.239Z,14.47
2018-11-06T06:22:32.822Z,7.53
2018-11-06T06:25:01.732Z,10.23
2018-11-06T06:34:14.684Z,3.70
2018-11-06T06:36:43.533Z,7.62
2018-11-06T06:39:12.375Z,13.32
2018-11-06T06:41:41.106Z,16.15
2018-11-06T06:44:09.671Z,7.00
2018-11-06T06:46:38.230Z,12.07
2018-11-06T06:49:06.841Z,9.93
2018-11-06T06:51:35.470Z,5.55
2018-11-06T06:54:04.131Z,6.45
2018-11-06T06:56:32.629Z,6.28
2018-11-06T06:59:01.159Z,4.22
2018-11-06T07:01:29.957Z,12.65
2018-11-06T07:03:58.547Z,4.92
2018-11-06T07:06:27.075Z,3.80
2018-11-06T07:08:55.611Z,4.90
2018-11-06T07:11:24.131Z,6.40
2018-11-06T07:13:52.657Z,8.55
2018-11-06T07:16:21.207Z,10.63
2018-11-06T07:18:50.098Z,5.87
2018-11-06T07:21:18.651Z,7.08
2018-11-06T07:23:47.490Z,8.53
2018-11-06T07:26:16.034Z,12.85
2018-11-06T07:28:44.635Z,9.25
2018-11-06T07:31:13.147Z,6.65
2018-11-06T07:33:41.711Z,13.32
2018-11-06T07:36:10.701Z,12.30
2018-11-06T07:38:39.239Z,14.43
2018-11-06T07:41:07.884Z,11.48
2018-11-06T07:43:36.752Z,13.60
2018-11-06T07:46:05.900Z,14.18
2018-11-06T07:48:34.476Z,15.50
2018-11-06T07:51:03.047Z,20.25
2018-11-06T07:53:31.641Z,28.45
2018-11-06T07:56:00.224Z,23.05
2018-11-06T07:58:28.779Z,23.30
2018-11-06T08:00:57.335Z,25.20
2018-11-06T08:03:25.886Z,26.82
2018-11-06T08:05:54.783Z,26.65
2018-11-06T08:08:23.331Z,28.67
2018-11-06T08:10:51.867Z,28.47
2018-11-06T08:13:20.988Z,38.95
2018-11-06T08:15:49.527Z,41.80
2018-11-06T08:18:18.078Z,31.15
2018-11-06T08:20:46.748Z,26.23
2018-11-06T08:23:15.190Z,47.08
2018-11-06T08:25:44.059Z,35.88
2018-11-06T08:28:12.963Z,34.58
2018-11-06T08:30:41.636Z,30.43
2018-11-06T08:33:10.083Z,40.08
2018-11-06T08:35:38.628Z,34.75
2018-11-06T08:38:07.446Z,43.70
2018-11-06T08:40:35.976Z,32.75
2018-11-06T08:43:04.551Z,49.13
2018-11-06T08:45:33.082Z,35.58
2018-11-06T08:48:01.653Z,46.70
2018-11-06T08:50:30.199Z,43.00
2018-11-06T08:52:58.750Z,55.80
2018-11-06T08:55:27.832Z,40.00
2018-11-06T08:57:56.383Z,51.98
2018-11-06T09:00:24.967Z,49.42
2018-11-06T09:02:53.514Z,53.30
2018-11-06T09:05:22.358Z,52.33
2018-11-06T09:07:51.256Z,62.05
2018-11-06T09:10:20.111Z,48.35
2018-11-06T09:12:48.671Z,47.00
2018-11-06T09:15:17.804Z,42.33
2018-11-06T09:17:46.422Z,56.33
2018-11-06T09:20:16.397Z,55.50
2018-11-06T09:22:44.951Z,46.77
2018-11-06T09:25:15.027Z,36.70
2018-11-06T09:27:44.011Z,53.17
2018-11-06T09:30:14.538Z,51.65
2018-11-06T09:32:43.729Z,47.78
2018-11-06T09:35:13.006Z,70.32
2018-11-06T09:37:42.519Z,48.65
2018-11-06T09:40:14.346Z,64.65
2018-11-06T09:42:43.103Z,53.42
2018-11-06T09:45:12.778Z,69.40
2018-11-06T09:47:41.303Z,42.35
2018-11-06T09:50:16.131Z,49.03
2018-11-06T09:52:45.607Z,52.98
2018-11-06T09:55:14.791Z,45.92
2018-11-06T09:57:43.587Z,60.65
2018-11-06T10:00:15.355Z,50.85
2018-11-06T10:02:43.915Z,60.65
2018-11-06T10:05:13.162Z,54.65
2018-11-06T10:07:41.741Z,47.05
2018-11-06T10:10:13.390Z,45.52
2018-11-06T10:12:42.966Z,52.33
2018-11-06T10:15:13.629Z,54.20
2018-11-06T10:17:43.538Z,49.73
2018-11-06T10:20:13.114Z,55.50
2018-11-06T10:22:41.715Z,52.85
2018-11-06T10:25:10.327Z,43.38
2018-11-06T10:27:39.954Z,46.23
2018-11-06T10:30:12.182Z,49.03
2018-11-06T10:32:40.847Z,47.13
2018-11-06T10:35:10.725Z,59.80
2018-11-06T10:37:39.340Z,52.35
2018-11-06T10:40:11.932Z,48.52
2018-11-06T10:44:09.859Z,49.13
2018-11-06T10:46:39.075Z,56.65
2018-11-06T10:49:08.953Z,61.35
2018-11-06T10:51:37.567Z,52.98
2018-11-06T10:54:06.502Z,60.15
2018-11-06T10:56:35.033Z,50.52
2018-11-06T10:59:03.567Z,54.23
2018-11-06T11:01:37.508Z,61.33
2018-11-06T11:04:11.386Z,54.08
2018-11-06T11:06:40.167Z,55.92
2018-11-06T11:09:10.695Z,68.67
2018-11-06T11:11:39.691Z,68.55
2018-11-06T11:14:08.482Z,67.32
2018-11-06T11:16:37.020Z,63.40
2018-11-06T11:19:05.910Z,62.70
2018-11-06T11:21:34.446Z,68.40
2018-11-06T11:24:03.054Z,64.90
2018-11-06T11:26:31.588Z,56.15
2018-11-06T11:29:00.119Z,59.23
2018-11-06T11:31:28.970Z,54.08
2018-11-06T11:33:57.601Z,63.70
2018-11-06T11:36:26.263Z,67.92
2018-11-06T11:38:54.807Z,64.00
2018-11-06T11:41:23.351Z,60.05
2018-11-06T11:43:51.894Z,57.88
2018-11-06T11:46:20.439Z,65.72
2018-11-06T11:48:49.288Z,58.17
2018-11-06T11:51:17.963Z,60.15
2018-11-06T11:53:46.523Z,56.40
2018-11-06T11:56:15.758Z,51.50
2018-11-06T11:58:44.324Z,51.13
2018-11-06T12:01:12.874Z,45.38
2018-11-06T12:03:41.431Z,60.35
2018-11-06T12:06:09.973Z,51.08
2018-11-06T12:08:38.774Z,43.23
2018-11-06T12:11:07.637Z,47.85
2018-11-06T12:13:36.699Z,49.25
2018-11-06T12:16:05.446Z,48.45
2018-11-06T12:18:33.993Z,41.98
2018-11-06T12:21:03.022Z,49.60
2018-11-06T12:23:31.575Z,47.62
2018-11-06T12:26:00.154Z,44.38
2018-11-06T12:28:29.078Z,46.90
2018-11-06T12:30:57.627Z,43.30
2018-11-06T12:33:26.175Z,41.73
2018-11-06T12:35:55.143Z,48.87
2018-11-06T12:38:23.693Z,40.48
2018-11-06T12:40:52.287Z,34.33
2018-11-06T12:43:20.869Z,62.58
2018-11-06T12:45:49.703Z,44.33
2018-11-06T12:48:18.230Z,42.20
2018-11-06T12:50:46.768Z,68.72
2018-11-06T12:53:15.527Z,57.17
2018-11-06T12:55:44.418Z,55.10
2018-11-06T12:58:12.961Z,61.50
2018-11-06T13:00:41.587Z,63.87
2018-11-06T13:03:10.163Z,49.23
2018-11-06T13:05:38.723Z,51.80
2018-11-06T13:08:07.267Z,42.88
2018-11-06T13:10:35.815Z,49.93
2018-11-06T13:13:04.902Z,53.70
2018-11-06T13:15:33.517Z,52.60
2018-11-06T13:18:02.043Z,51.95
2018-11-06T13:20:31.095Z,54.63
2018-11-06T13:22:59.643Z,51.50
2018-11-06T13:25:28.220Z,48.80
2018-11-06T13:27:56.789Z,48.52
2018-11-06T13:30:25.330Z,62.40
2018-11-06T13:32:53.999Z,64.20
2018-11-06T13:35:22.556Z,67.42
2018-11-06T13:37:51.311Z,51.80
2018-11-06T13:40:20.147Z,64.72
2018-11-06T13:42:48.866Z,77.17
2018-11-06T13:45:19.108Z,48.08
2018-11-06T13:47:47.848Z,63.00
2018-11-06T13:50:16.398Z,66.67
2018-11-06T13:52:44.959Z,66.28
2018-11-06T13:55:14.846Z,47.45
2018-11-06T13:57:44.848Z,58.78
2018-11-06T14:00:16.796Z,61.02
2018-11-06T14:02:45.766Z,49.95
2018-11-06T14:05:14.591Z,53.45
2018-11-06T14:07:43.147Z,56.92
2018-11-06T14:10:11.701Z,60.25
2018-11-06T14:12:41.671Z,66.35
2018-11-06T14:15:10.223Z,55.23
2018-11-06T14:17:39.139Z,60.03
2018-11-06T14:20:10.454Z,78.90
2018-11-06T14:22:38.992Z,62.73
2018-11-06T14:25:08.368Z,66.72
2018-11-06T14:27:37.005Z,46.13
2018-11-06T14:30:09.091Z,65.57
2018-11-06T14:32:37.995Z,55.03
2018-11-06T14:35:09.266Z,61.68
2018-11-06T14:37:38.187Z,71.65
2018-11-06T14:40:08.065Z,69.03
2018-11-06T14:42:36.950Z,63.85
2018-11-06T14:45:07.225Z,60.05
2018-11-06T14:47:35.975Z,73.42
2018-11-06T14:50:05.575Z,58.70
2018-11-06T14:52:34.859Z,76.02
2018-11-06T14:55:03.805Z,65.70
2018-11-06T14:57:32.759Z,62.27
2018-11-06T15:00:01.880Z,60.52
2018-11-06T15:02:30.439Z,76.02
2018-11-06T15:04:58.975Z,71.57
2018-11-06T15:07:27.559Z,56.08
2018-11-06T15:09:56.199Z,60.28
2018-11-06T15:12:24.755Z,65.47
2018-11-06T15:14:53.294Z,62.73
2018-11-06T15:17:21.838Z,64.40
2018-11-06T15:19:50.936Z,64.05
2018-11-06T15:22:19.484Z,63.25
2018-11-06T15:24:48.380Z,53.02
2018-11-06T15:27:16.968Z,52.27
2018-11-06T15:29:45.717Z,65.97
2018-11-06T15:32:14.866Z,63.85
2018-11-06T15:34:43.415Z,68.10
2018-11-06T15:37:11.959Z,57.40
2018-11-06T15:39:40.843Z,56.48
2018-11-06T15:42:09.614Z,58.33
2018-11-06T15:44:38.088Z,47.75
2018-11-06T15:47:07.707Z,54.35
2018-11-06T15:49:36.263Z,48.92
2018-11-06T15:52:05.308Z,39.00
2018-11-06T15:54:34.215Z,55.55
2018-11-06T15:57:02.737Z,46.55
2018-11-06T15:59:31.281Z,56.28
2018-11-06T16:01:59.851Z,53.20
2018-11-06T16:04:28.390Z,49.65
2018-11-06T16:06:57.010Z,41.28
2018-11-06T16:09:25.544Z,50.58
2018-11-06T16:11:54.098Z,40.95
2018-11-06T16:14:23.250Z,40.92
2018-11-06T16:16:51.801Z,48.58
2018-11-06T16:19:20.334Z,41.85
2018-11-06T16:21:49.311Z,48.38
2018-11-06T16:24:17.907Z,45.60
2018-11-06T16:26:46.457Z,48.63
2018-11-06T16:29:15.004Z,42.88
2018-11-06T16:31:44.126Z,40.40
2018-11-06T16:34:12.721Z,51.08
2018-11-06T16:36:41.265Z,44.30
2018-11-06T16:39:11.387Z,50.58
2018-11-06T16:41:40.494Z,47.45
2018-11-06T16:44:09.315Z,49.03
2018-11-06T16:46:37.985Z,55.70
2018-11-06T16:49:06.679Z,46.00
2018-11-06T16:51:35.669Z,46.02
2018-11-06T16:54:04.763Z,41.05
2018-11-06T16:56:33.599Z,50.23
2018-11-06T16:59:02.231Z,51.30
2018-11-06T17:01:30.795Z,44.65
2018-11-06T17:03:59.465Z,63.25
2018-11-06T17:06:33.135Z,53.83
2018-11-06T17:09:02.122Z,61.25
2018-11-06T17:11:30.699Z,73.25
2018-11-06T17:13:59.269Z,63.68
2018-11-06T17:16:28.219Z,55.12
2018-11-06T17:18:56.771Z,63.02
2018-11-06T17:21:25.418Z,63.63
2018-11-06T17:23:53.966Z,63.00
2018-11-06T17:26:22.923Z,54.83
2018-11-06T17:28:51.490Z,62.85
2018-11-06T17:31:20.038Z,63.42
2018-11-06T17:33:48.647Z,65.65
2018-11-06T17:36:17.527Z,60.17
2018-11-06T17:38:46.063Z,56.68
2018-11-06T17:41:14.617Z,46.80
2018-11-06T17:43:43.187Z,57.35
2018-11-06T17:46:12.303Z,57.88
2018-11-06T17:48:41.260Z,60.43
2018-11-06T17:51:10.011Z,59.75
2018-11-06T17:53:38.558Z,54.10
2018-11-06T17:56:07.095Z,58.20
2018-11-06T17:58:36.331Z,57.83
2018-11-06T18:01:05.543Z,58.20
2018-11-06T18:03:34.092Z,64.00
2018-11-06T18:06:03.233Z,57.15
2018-11-06T18:08:31.786Z,69.00
2018-11-06T18:11:00.345Z,56.30
2018-11-06T18:13:28.899Z,55.90
2018-11-06T18:15:57.577Z,71.75
2018-11-06T18:18:26.120Z,59.18
2018-11-06T18:20:54.682Z,55.20
2018-11-06T18:23:23.394Z,66.75
2018-11-06T18:25:52.100Z,62.25
2018-11-06T18:28:20.535Z,48.70
2018-11-06T18:30:49.375Z,52.55
2018-11-06T18:33:17.935Z,52.78
2018-11-06T18:35:46.512Z,48.48
2018-11-06T18:38:15.291Z,54.63
2018-11-06T18:40:43.791Z,47.10
2018-11-06T18:43:12.342Z,47.33
2018-11-06T18:45:40.894Z,62.10
2018-11-06T18:48:09.447Z,54.63
2018-11-06T18:50:38.662Z,58.30
2018-11-06T18:53:07.207Z,63.23
2018-11-06T18:55:35.749Z,51.10
2018-11-06T18:58:05.149Z,63.58
2018-11-06T19:00:33.679Z,74.92
2018-11-06T19:03:02.255Z,57.90
2018-11-06T19:05:30.803Z,59.13
2018-11-06T19:07:59.355Z,41.02
2018-11-06T19:10:28.121Z,48.35
2018-11-06T19:12:56.659Z,48.08
2018-11-06T19:15:25.712Z,44.00
2018-11-06T19:17:54.678Z,48.13
2018-11-06T19:20:23.286Z,47.83
2018-11-06T19:22:51.879Z,55.23
2018-11-06T19:25:20.426Z,66.87
2018-11-06T19:27:48.647Z,51.65
2018-11-06T19:30:18.478Z,51.20
2018-11-06T19:32:46.963Z,47.40
2018-11-06T19:35:15.213Z,40.33
2018-11-06T19:37:43.482Z,62.45
2018-11-06T19:40:14.011Z,42.90
2018-11-06T19:42:43.114Z,49.75
2018-11-06T19:45:12.090Z,47.43
2018-11-06T19:47:40.733Z,48.95
2018-11-06T19:50:10.270Z,44.58
2018-11-06T19:52:39.068Z,47.67
2018-11-06T19:55:08.480Z,47.88
2018-11-06T19:57:36.727Z,46.68
2018-11-06T20:00:07.964Z,47.33
2018-11-06T20:02:36.573Z,49.98
2018-11-06T20:05:05.092Z,39.67
2018-11-06T20:07:33.563Z,43.45
2018-11-06T20:10:01.787Z,38.95
2018-11-06T20:12:30.258Z,36.23
2018-11-06T20:14:58.491Z,41.02
2018-11-06T20:17:26.763Z,46.40
2018-11-06T20:19:54.930Z,41.13
2018-11-06T20:22:23.322Z,42.55
2018-11-06T20:24:51.544Z,39.08
2018-11-06T20:27:20.020Z,41.60
2018-11-06T20:29:48.140Z,40.95
2018-11-06T20:32:16.363Z,36.73
2018-11-06T20:34:44.563Z,32.95
2018-11-06T20:37:12.777Z,45.40
2018-11-06T20:39:41.081Z,41.23
2018-11-06T20:42:09.842Z,45.95
2018-11-06T20:44:38.190Z,50.95
2018-11-06T20:47:06.472Z,37.75
2018-11-06T20:49:34.778Z,43.45
2018-11-06T20:52:02.955Z,48.05
2018-11-06T20:54:31.214Z,47.53
2018-11-06T20:56:59.454Z,36.73
2018-11-06T20:59:27.881Z,50.90
2018-11-06T21:01:56.472Z,46.05
2018-11-06T21:04:24.678Z,39.30
2018-11-06T21:06:52.908Z,55.80
2018-11-06T21:09:21.152Z,50.98
2018-11-06T21:11:49.391Z,56.95
2018-11-06T21:14:17.955Z,49.85
2018-11-06T21:16:46.531Z,51.10
2018-11-06T21:19:14.742Z,45.60
2018-11-06T21:21:42.988Z,47.25
2018-11-06T21:24:11.199Z,49.48
2018-11-06T21:26:39.648Z,49.90
2018-11-06T21:29:08.465Z,47.33
2018-11-06T21:31:36.682Z,40.03
2018-11-06T21:34:05.315Z,55.70
2018-11-06T21:36:33.642Z,43.52
2018-11-06T21:39:01.882Z,50.95
2018-11-06T21:41:30.536Z,58.05
2018-11-06T21:43:58.743Z,51.85
2018-11-06T21:46:26.971Z,49.65
2018-11-06T21:48:55.182Z,41.63
2018-11-06T21:51:23.398Z,33.63
2018-11-06T21:53:52.196Z,47.40
2018-11-06T21:56:20.407Z,41.58
2018-11-06T21:58:48.972Z,37.45
2018-11-06T22:01:17.576Z,36.83
2018-11-06T22:03:45.782Z,31.10
2018-11-06T22:06:13.989Z,32.88
2018-11-06T22:08:42.218Z,35.45
2018-11-06T22:11:10.427Z,39.60
2018-11-06T22:13:39.033Z,36.93
2018-11-06T22:16:07.281Z,34.23
2018-11-06T22:18:35.830Z,43.65
2018-11-06T22:21:04.322Z,39.40
2018-11-06T22:23:32.557Z,39.90
2018-11-06T22:26:00.806Z,34.45
2018-11-06T22:28:29.079Z,29.67
2018-11-06T22:30:57.357Z,35.52
2018-11-06T22:33:25.626Z,36.30
2018-11-06T22:35:53.840Z,32.73
2018-11-06T22:38:22.240Z,39.63
2018-11-06T22:40:50.450Z,35.95
2018-11-06T22:43:18.666Z,49.10
2018-11-06T22:45:47.343Z,34.53
2018-11-06T22:48:15.759Z,34.00
2018-11-06T22:50:43.994Z,34.45
2018-11-06T22:53:12.595Z,33.67
2018-11-06T22:55:40.812Z,33.20
2018-11-06T22:58:09.214Z,32.75
2018-11-06T23:00:42.728Z,32.88
2018-11-06T23:03:11.023Z,27.35
2018-11-06T23:05:39.494Z,24.65
2018-11-06T23:08:13.423Z,25.95
2018-11-06T23:10:42.170Z,34.48
2018-11-06T23:13:10.774Z,30.30
2018-11-06T23:15:39.431Z,41.60
2018-11-06T23:18:07.655Z,30.43
2018-11-06T23:20:35.977Z,29.98
2018-11-06T23:23:04.600Z,29.52
2018-11-06T23:25:32.946Z,28.83
2018-11-06T23:28:01.162Z,24.45
2018-11-06T23:30:29.378Z,27.02
2018-11-06T23:32:57.778Z,26.40
2018-11-06T23:35:26.056Z,28.60
2018-11-06T23:37:54.242Z,24.27
2018-11-06T23:40:22.445Z,22.82
2018-11-06T23:42:51.224Z,30.30
2018-11-06T23:45:19.432Z,23.62
2018-11-06T23:47:47.870Z,31.97
2018-11-06T23:50:16.112Z,26.25
2018-11-06T23:52:44.630Z,24.55
2018-11-06T23:55:13.069Z,26.12
2018-11-06T23:57:41.286Z,25.15
